Time;durP1;ratioP1;P1;durP2;ratioP2;P2;SDS_P1;SDS_P2;PMS_P1;PMS_P2;Temp;Humidity;BMP_temperature;BMP_pressure;BME280_temperature;BME280_humidity;BME280_pressure;Samples;Min_cycle;Max_cycle;Signal;HPM_P1;HPM_P2
2021/08/24 00:00:16;;;;;;;;;6.00;6.00;;;;;23.19;49.59;101926.81;5019063;28;1101204;-50
2021/08/24 00:02:41;;;;;;;;;9.25;8.00;;;;;23.19;49.63;101933.88;5058127;28;46755;-52
2021/08/24 00:05:08;;;;;;;;;4.00;4.00;;;;;23.18;49.37;101922.44;5057894;28;45417;-49
2021/08/24 00:07:34;;;;;;;;;2.00;2.00;;;;;23.18;49.78;101922.44;5057940;28;45239;-48
2021/08/24 00:09:59;;;;;;;;;4.50;4.25;;;;;23.19;49.91;101921.53;5058065;28;45598;-53
2021/08/24 00:12:25;;;;;;;;;7.25;6.00;;;;;23.18;49.31;101917.13;5057846;28;45409;-50
2021/08/24 00:14:50;;;;;;;;;8.50;6.00;;;;;23.16;49.23;101909.28;5057639;28;45470;-52
2021/08/24 00:17:15;;;;;;;;;5.00;5.00;;;;;23.17;49.58;101908.38;5058183;28;45506;-51
2021/08/24 00:19:41;;;;;;;;;4.00;4.00;;;;;23.16;49.75;101897.84;5057904;28;45178;-51
2021/08/24 00:22:07;;;;;;;;;7.00;7.00;;;;;23.17;49.71;101905.72;5057567;28;45263;-54
2021/08/24 00:24:32;;;;;;;;;7.00;7.00;;;;;23.16;49.21;101901.38;5057568;28;45340;-49
2021/08/24 00:26:58;;;;;;;;;4.50;4.25;;;;;23.16;49.17;101896.06;5057771;28;45311;-50
2021/08/24 00:29:23;;;;;;;;;6.75;6.00;;;;;23.17;49.39;101899.56;5038398;28;45618;-56
2021/08/24 00:31:48;;;;;;;;;7.25;5.00;;;;;23.17;49.55;101900.44;5057486;28;45360;-56
2021/08/24 00:34:14;;;;;;;;;5.25;4.75;;;;;23.17;49.71;101889.84;5057668;28;45323;-56
2021/08/24 00:36:39;;;;;;;;;7.00;5.25;;;;;23.16;49.34;101893.44;5057511;28;45383;-57
2021/08/24 00:39:05;;;;;;;;;5.75;5.75;;;;;23.15;49.69;101897.00;5057533;28;45430;-55
2021/08/24 00:41:30;;;;;;;;;5.50;5.50;;;;;23.15;49.74;101901.44;5057275;28;46339;-55
2021/08/24 00:43:55;;;;;;;;;7.00;6.00;;;;;23.13;49.40;101888.28;5057349;28;45424;-53
2021/08/24 00:46:28;;;;;;;;;5.00;5.00;;;;;23.15;49.71;101897.00;5057578;28;45430;-57
2021/08/24 00:48:53;;;;;;;;;9.75;7.00;;;;;23.15;49.80;101902.28;5057573;28;45519;-52
2021/08/24 00:51:23;;;;;;;;;6.25;5.50;;;;;23.13;49.51;101901.50;5057224;28;45573;-54
2021/08/24 00:53:49;;;;;;;;;4.00;4.00;;;;;23.12;49.37;101891.84;5057452;28;45815;-52
2021/08/24 00:56:14;;;;;;;;;9.00;6.00;;;;;23.13;49.54;101898.03;5057607;28;45318;-56
2021/08/24 00:58:40;;;;;;;;;7.75;7.75;;;;;23.13;49.58;101895.38;5057395;28;45427;-55
2021/08/24 01:01:06;;;;;;;;;4.00;4.00;;;;;23.12;49.59;101901.59;5057038;28;46625;-55
2021/08/24 01:03:36;;;;;;;;;7.25;6.00;;;;;23.13;49.44;101904.16;5056997;28;45347;-54
2021/08/24 01:06:13;;;;;;;;;7.25;7.00;;;;;23.12;49.89;101897.16;5057099;28;45209;-49
2021/08/24 01:09:01;;;;;;;;;7.00;7.00;;;;;23.13;49.53;101898.88;5057383;28;45343;-53
2021/08/24 01:11:43;;;;;;;;;7.50;5.50;;;;;23.12;49.75;101894.50;5056962;28;45557;-54
2021/08/24 01:14:32;;;;;;;;;6.75;6.75;;;;;23.13;49.62;101888.28;5056895;28;45257;-55
2021/08/24 01:17:09;;;;;;;;;6.50;6.50;;;;;23.12;49.78;101889.22;5057206;28;45483;-56
2021/08/24 01:19:47;;;;;;;;;5.75;5.75;;;;;23.13;49.77;101885.63;5056859;28;45447;-54
2021/08/24 01:22:30;;;;;;;;;6.75;6.00;;;;;23.14;49.38;101890.00;5056673;28;45348;-53
2021/08/24 01:25:02;;;;;;;;;5.25;5.00;;;;;23.12;49.43;101897.16;5056870;28;45856;-50
2021/08/24 01:27:36;;;;;;;;;6.25;5.25;;;;;23.13;49.76;101887.44;5056848;28;45438;-55
2021/08/24 01:30:01;;;;;;;;;8.00;8.00;;;;;23.12;49.61;101889.22;5057189;28;45635;-56
2021/08/24 01:32:46;;;;;;;;;8.33;6.67;;;;;23.10;49.51;101888.44;5056523;28;46106;-49
2021/08/24 01:35:31;;;;;;;;;5.25;5.25;;;;;23.10;49.65;101890.22;5038559;28;45846;-51
2021/08/24 01:38:26;;;;;;;;;6.75;6.00;;;;;23.09;49.56;101881.47;5056763;28;45374;-50
2021/08/24 01:40:52;;;;;;;;;7.25;5.75;;;;;23.09;49.56;101884.09;5056726;28;45331;-55
2021/08/24 01:43:27;;;;;;;;;5.67;5.67;;;;;23.10;49.98;101883.13;5056629;28;45515;-51
2021/08/24 01:46:10;;;;;;;;;6.75;6.75;;;;;23.09;49.84;101876.16;5056292;28;45515;-48
2021/08/24 01:48:41;;;;;;;;;7.50;5.50;;;;;23.09;49.53;101875.28;5056687;28;45815;-50
2021/08/24 01:51:18;;;;;;;;;6.00;6.00;;;;;23.09;49.80;101881.47;5056559;28;45538;-50
2021/08/24 01:53:53;;;;;;;;;6.50;6.50;;;;;23.07;49.72;101875.38;5056413;28;45366;-55
2021/08/24 01:56:25;;;;;;;;;5.50;5.50;;;;;23.08;49.77;101877.09;5056473;28;45595;-57
2021/08/24 01:58:55;;;;;;;;;8.00;5.00;;;;;23.08;49.66;101874.44;5056591;28;45355;-55
2021/08/24 02:01:34;;;;;;;;;7.25;6.25;;;;;23.08;49.80;101868.28;5056924;28;45324;-57
2021/08/24 02:04:04;;;;;;;;;8.00;8.00;;;;;23.07;50.07;101874.50;5055971;28;45558;-57
2021/08/24 02:06:50;;;;;;;;;6.00;6.00;;;;;23.08;49.73;101879.75;5056154;28;45241;-57
2021/08/24 02:09:34;;;;;;;;;6.50;6.50;;;;;23.08;49.61;101886.81;5056054;28;45304;-54
2021/08/24 02:12:01;;;;;;;;;5.75;5.75;;;;;23.07;49.91;101883.31;5056429;28;45304;-54
2021/08/24 02:14:29;;;;;;;;;7.50;6.25;;;;;23.08;49.72;101884.16;5055938;28;46810;-50
2021/08/24 02:16:56;;;;;;;;;7.00;6.00;;;;;23.07;49.68;101888.59;5055945;28;45777;-55
2021/08/24 02:19:27;;;;;;;;;8.00;5.75;;;;;23.06;50.06;101886.88;5056487;28;45283;-53
2021/08/24 02:21:56;;;;;;;;;5.50;5.50;;;;;23.07;49.86;101888.59;5056732;28;46032;-48
2021/08/24 02:24:29;;;;;;;;;5.50;5.00;;;;;23.08;49.97;101884.16;5056192;28;46417;-50
2021/08/24 02:26:57;;;;;;;;;7.50;7.25;;;;;23.07;49.65;101879.78;5056034;28;45350;-51
2021/08/24 02:29:23;;;;;;;;;6.00;4.75;;;;;23.05;49.89;101882.53;5056397;28;45266;-55
2021/08/24 02:32:10;;;;;;;;;6.00;6.00;;;;;23.06;49.71;101884.25;5056649;28;45277;-54
2021/08/24 02:34:41;;;;;;;;;5.50;5.25;;;;;23.06;49.87;101886.00;5055683;28;46539;-50
2021/08/24 02:37:24;;;;;;;;;6.00;5.00;;;;;23.05;49.83;101879.88;5055958;28;45963;-50
2021/08/24 02:40:02;;;;;;;;;5.25;5.25;;;;;23.06;50.02;101886.00;5056306;28;45450;-54
2021/08/24 02:42:49;;;;;;;;;5.25;5.25;;;;;23.06;49.80;101889.53;5055780;28;45178;-56
2021/08/24 02:45:22;;;;;;;;;6.50;6.50;;;;;23.05;50.13;101889.59;5055587;28;46720;-52
2021/08/24 02:47:48;;;;;;;;;7.75;7.75;;;;;23.05;49.93;101886.94;5055646;28;45229;-53
2021/08/24 02:50:14;;;;;;;;;6.00;6.00;;;;;23.03;50.04;101875.63;5055728;28;45331;-54
2021/08/24 02:52:40;;;;;;;;;8.00;6.50;;;;;23.04;50.26;101886.09;5056690;28;45329;-52
2021/08/24 02:55:08;;;;;;;;;7.50;6.50;;;;;23.05;50.02;101892.22;5059106;28;46208;-49
2021/08/24 02:57:34;;;;;;;;;5.75;5.75;;;;;23.04;50.05;101887.91;5058871;28;45331;-51
2021/08/24 02:59:59;;;;;;;;;6.25;5.50;;;;;23.04;50.24;101886.09;5058951;28;45355;-48
2021/08/24 03:02:25;;;;;;;;;8.00;8.00;;;;;23.05;50.05;101879.00;5059548;28;45503;-53
2021/08/24 03:04:51;;;;;;;;;7.75;7.75;;;;;23.05;50.06;101884.31;5059098;28;45404;-47
2021/08/24 03:07:26;;;;;;;;;8.25;7.50;;;;;23.04;50.32;101880.81;5058908;28;45338;-55
2021/08/24 03:09:54;;;;;;;;;7.00;7.00;;;;;23.04;50.15;101880.81;5059414;28;45482;-49
2021/08/24 03:12:47;;;;;;;;;7.00;7.00;;;;;23.03;50.26;101881.75;5059109;28;45342;-54
2021/08/24 03:15:28;;;;;;;;;11.00;9.25;;;;;23.04;50.06;101877.34;5058522;28;46434;-51
2021/08/24 03:18:08;;;;;;;;;8.25;7.25;;;;;23.03;50.04;101878.25;5059122;28;45868;-53
2021/08/24 03:20:39;;;;;;;;;12.25;8.25;;;;;23.03;50.42;101880.91;5058791;28;45309;-53
2021/08/24 03:23:07;;;;;;;;;8.75;7.00;;;;;23.01;50.34;101878.31;5059206;28;45314;-57
2021/08/24 03:25:33;;;;;;;;;8.00;7.00;;;;;23.02;50.43;101880.03;5058594;28;46037;-54
2021/08/24 03:27:58;;;;;;;;;9.25;8.75;;;;;23.00;50.28;101877.47;5058708;28;45434;-56
2021/08/24 03:30:24;;;;;;;;;9.25;9.25;;;;;23.00;50.38;101874.81;5041063;28;45442;-52
2021/08/24 03:32:50;;;;;;;;;8.25;8.25;;;;;22.99;50.49;101874.88;5058866;28;45216;-57
2021/08/24 03:35:17;;;;;;;;;7.75;6.50;;;;;22.99;50.14;101875.75;5058313;28;45329;-49
2021/08/24 03:37:43;;;;;;;;;11.75;8.25;;;;;23.00;50.38;101871.31;5058421;28;45720;-50
2021/08/24 03:40:10;;;;;;;;;9.50;7.75;;;;;23.00;50.23;101880.13;5058450;28;45375;-49
2021/08/24 03:42:36;;;;;;;;;12.50;11.00;;;;;23.00;50.27;101879.25;5058608;28;45441;-47
2021/08/24 03:45:03;;;;;;;;;13.25;9.50;;;;;22.98;50.41;101868.75;5058132;28;46553;-52
2021/08/24 03:47:28;;;;;;;;;9.00;9.00;;;;;22.99;49.97;101874.88;5058180;28;45333;-56
2021/08/24 03:49:54;;;;;;;;;10.00;10.00;;;;;22.98;50.02;101874.03;5058686;28;45334;-56
2021/08/24 03:52:19;;;;;;;;;11.00;11.00;;;;;22.98;50.25;101876.69;5058427;28;45487;-52
2021/08/24 03:54:45;;;;;;;;;12.25;10.00;;;;;22.98;50.13;101878.50;5057994;28;45375;-50
2021/08/24 03:57:10;;;;;;;;;11.00;11.00;;;;;22.96;50.54;101864.47;5058175;28;45440;-50
2021/08/24 03:59:35;;;;;;;;;12.00;9.50;;;;;22.96;50.34;101872.41;5057974;28;45504;-48
2021/08/24 04:02:02;;;;;;;;;11.00;10.00;;;;;22.95;50.55;101868.91;5058293;28;45353;-49
2021/08/24 04:04:28;;;;;;;;;14.00;10.75;;;;;22.96;50.33;101869.78;5056654;28;46350;-51
2021/08/24 04:06:53;;;;;;;;;14.25;11.25;;;;;22.96;50.42;101881.19;5058213;28;45454;-50
2021/08/24 04:09:18;;;;;;;;;11.75;11.75;;;;;22.95;50.84;101878.63;5058013;28;45415;-50
2021/08/24 04:11:44;;;;;;;;;12.00;10.75;;;;;22.95;50.20;101878.63;5058057;28;45534;-53
2021/08/24 04:14:09;;;;;;;;;10.00;10.00;;;;;22.95;50.14;101878.63;5057529;28;46241;-50
2021/08/24 04:16:35;;;;;;;;;13.00;13.00;;;;;22.92;50.30;101878.78;5057502;28;45463;-50
2021/08/24 04:19:00;;;;;;;;;11.25;11.25;;;;;22.92;50.35;101884.94;5057808;28;45273;-49
2021/08/24 04:21:25;;;;;;;;;12.50;12.50;;;;;22.93;50.48;101883.97;5058303;28;45403;-51
2021/08/24 04:23:51;;;;;;;;;13.25;13.00;;;;;22.93;50.48;101893.72;5057713;28;46833;-54
2021/08/24 04:26:17;;;;;;;;;12.00;10.25;;;;;22.93;50.33;101886.63;5057456;28;45334;-51
2021/08/24 04:28:43;;;;;;;;;14.25;14.00;;;;;22.93;50.39;101891.06;5057571;28;45282;-50
2021/08/24 04:31:12;;;;;;;;;11.75;11.75;;;;;22.93;50.58;101889.25;5057880;28;45472;-48
2021/08/24 04:33:37;;;;;;;;;16.75;13.00;;;;;22.93;50.45;101894.53;5057226;28;46217;-51
2021/08/24 04:36:05;;;;;;;;;12.00;11.00;;;;;22.93;50.61;101896.34;5057207;28;45428;-48
2021/08/24 04:38:30;;;;;;;;;12.50;10.75;;;;;22.93;50.39;101901.63;5057529;28;45284;-52
2021/08/24 04:40:56;;;;;;;;;14.50;12.25;;;;;22.91;50.55;101898.22;5057864;28;45275;-47
2021/08/24 04:43:21;;;;;;;;;14.50;13.25;;;;;22.93;50.66;101902.47;5057159;28;46173;-50
2021/08/24 04:45:47;;;;;;;;;13.75;13.50;;;;;22.92;50.67;101899.91;5057209;28;45270;-47
2021/08/24 04:48:13;;;;;;;;;18.00;14.00;;;;;22.91;50.42;101903.50;5057392;28;45336;-49
2021/08/24 04:50:39;;;;;;;;;14.00;12.00;;;;;22.90;50.48;101901.78;5039558;28;45280;-48
2021/08/24 04:53:04;;;;;;;;;17.25;17.25;;;;;22.87;50.56;101902.78;5057083;28;46512;-50
2021/08/24 04:55:30;;;;;;;;;18.50;16.50;;;;;22.90;50.44;101901.78;5057252;28;45410;-47
2021/08/24 04:57:55;;;;;;;;;15.75;14.25;;;;;22.89;50.48;101900.06;5057236;28;45331;-47
2021/08/24 05:00:21;;;;;;;;;14.25;12.75;;;;;22.90;50.49;101901.78;5057069;28;45842;-50
2021/08/24 05:02:46;;;;;;;;;18.50;18.50;;;;;22.91;50.92;101914.06;5056665;28;45625;-48
2021/08/24 05:05:12;;;;;;;;;11.75;11.75;;;;;22.90;50.60;101907.06;5057042;28;45363;-48
2021/08/24 05:07:37;;;;;;;;;13.75;11.50;;;;;22.90;50.53;101912.34;5056897;28;45390;-51
2021/08/24 05:10:03;;;;;;;;;14.00;13.75;;;;;22.90;50.31;101910.59;5057044;28;45395;-55
2021/08/24 05:12:30;;;;;;;;;15.00;13.00;;;;;22.91;50.50;101909.66;5057116;28;46255;-50
2021/08/24 05:14:55;;;;;;;;;14.75;13.50;;;;;22.91;50.54;101919.34;5056706;28;45404;-47
2021/08/24 05:17:21;;;;;;;;;15.00;14.00;;;;;22.91;50.60;101919.34;5056824;28;45319;-51
2021/08/24 05:19:46;;;;;;;;;12.50;12.25;;;;;22.90;50.28;101912.34;5057110;28;45997;-51
2021/08/24 05:22:12;;;;;;;;;15.50;11.00;;;;;22.90;50.05;101913.22;5056624;28;46106;-56
2021/08/24 05:24:38;;;;;;;;;16.00;12.50;;;;;22.89;50.37;101916.78;5056583;28;45283;-52
2021/08/24 05:27:04;;;;;;;;;12.00;11.00;;;;;22.90;50.64;101912.34;5056772;28;45202;-50
2021/08/24 05:29:30;;;;;;;;;12.50;12.00;;;;;22.91;50.57;101916.72;5057288;28;45606;-53
2021/08/24 05:31:55;;;;;;;;;15.00;13.25;;;;;22.91;50.47;101919.34;5056586;28;46265;-52
2021/08/24 05:34:20;;;;;;;;;13.25;9.00;;;;;22.89;50.49;101919.44;5056368;28;45240;-48
2021/08/24 05:36:46;;;;;;;;;11.75;11.50;;;;;22.90;50.54;101921.16;5056562;28;45261;-48
2021/08/24 05:39:11;;;;;;;;;13.25;12.75;;;;;22.92;50.53;101926.34;5038600;28;45549;-47
2021/08/24 05:41:38;;;;;;;;;13.25;12.75;;;;;22.93;50.55;101928.06;5038330;28;48667;-48
2021/08/24 05:44:04;;;;;;;;;12.75;12.75;;;;;22.92;50.33;101926.34;5056367;28;45432;-50
2021/08/24 05:46:29;;;;;;;;;12.25;12.25;;;;;22.92;50.69;101921.94;5056766;28;45337;-53
2021/08/24 05:48:55;;;;;;;;;9.00;8.50;;;;;22.92;50.42;101924.59;5056778;28;45545;-48
2021/08/24 05:51:22;;;;;;;;;13.50;13.00;;;;;22.94;50.27;101924.50;5056154;28;46652;-49
2021/08/24 05:53:49;;;;;;;;;11.25;11.25;;;;;22.94;50.39;101924.50;5056247;28;45252;-51
2021/08/24 05:56:17;;;;;;;;;13.00;12.25;;;;;22.93;50.39;101922.78;5056393;28;45430;-49
2021/08/24 05:58:42;;;;;;;;;14.75;14.00;;;;;22.92;50.27;101921.94;5056404;28;45395;-47
2021/08/24 06:01:15;;;;;;;;;13.00;12.00;;;;;22.91;50.41;101925.50;5056436;28;46596;-53
2021/08/24 06:03:40;;;;;;;;;13.75;12.75;;;;;22.92;50.38;101940.44;5056254;28;45804;-50
2021/08/24 06:06:06;;;;;;;;;64.67;52.33;;;;;22.91;50.67;101929.94;5056423;28;45388;-50
2021/08/24 06:08:31;;;;;;;;;66.00;54.67;;;;;22.91;50.80;101937.84;5056602;28;45521;-52
2021/08/24 06:10:56;;;;;;;;;150.75;147.25;;;;;22.91;50.35;101935.22;5037979;28;48434;-54
2021/08/24 06:13:22;;;;;;;;;194.67;190.67;;;;;22.90;50.68;101933.50;5056116;28;45263;-51
2021/08/24 06:15:47;;;;;;;;;194.00;190.25;;;;;22.90;50.73;101929.09;5056067;28;45553;-55
2021/08/24 06:18:12;;;;;;;;;188.33;186.33;;;;;22.89;50.96;101935.31;5056213;28;45383;-47
2021/08/24 06:20:38;;;;;;;;;165.33;162.33;;;;;22.89;50.80;101930.00;5055791;28;45359;-51
2021/08/24 06:23:03;;;;;;;;;151.33;149.33;;;;;22.89;50.55;101937.94;5056120;28;45328;-49
2021/08/24 06:25:29;;;;;;;;;103.50;102.75;;;;;22.87;50.58;101934.50;5056003;28;45465;-58
2021/08/24 06:27:55;;;;;;;;;67.75;53.75;;;;;22.87;50.55;101936.31;5057383;28;45522;-56
2021/08/24 06:30:20;;;;;;;;;74.75;63.75;;;;;22.84;50.39;101930.22;5041221;28;47287;-50
2021/08/24 06:32:50;;;;;;;;;69.00;57.50;;;;;22.83;50.18;101928.53;5059217;28;45478;-58
2021/08/24 06:35:16;;;;;;;;;58.50;48.50;;;;;22.82;50.65;101934.72;5059257;28;45236;-57
2021/08/24 06:37:42;;;;;;;;;55.50;45.75;;;;;22.81;50.13;101930.38;5059608;28;45203;-45
2021/08/24 06:40:09;;;;;;;;;41.75;35.25;;;;;22.79;50.23;101926.09;5059434;28;46499;-44
2021/08/24 06:42:42;;;;;;;;;44.00;36.50;;;;;22.77;50.23;101928.78;5059518;28;46031;-46
2021/08/24 06:45:11;;;;;;;;;35.75;32.50;;;;;22.77;50.24;101935.88;5059370;28;45327;-52
2021/08/24 06:47:36;;;;;;;;;34.25;31.75;;;;;22.76;50.36;101936.81;5059370;28;45456;-46
2021/08/24 06:50:02;;;;;;;;;31.25;28.50;;;;;22.74;50.63;101934.25;5059396;28;46345;-45
2021/08/24 06:52:27;;;;;;;;;26.75;26.00;;;;;22.73;50.42;101937.81;5059071;28;45315;-48
2021/08/24 06:54:53;;;;;;;;;28.00;24.75;;;;;22.74;50.50;101933.38;5057902;28;45263;-46
2021/08/24 06:57:18;;;;;;;;;21.75;20.75;;;;;22.73;50.31;101939.59;5059354;28;45257;-48
2021/08/24 06:59:43;;;;;;;;;26.25;24.00;;;;;22.72;50.23;101940.50;5058686;28;45542;-46
2021/08/24 07:02:09;;;;;;;;;25.25;22.75;;;;;22.70;50.43;101936.19;5058785;28;45368;-47
2021/08/24 07:04:35;;;;;;;;;22.00;20.25;;;;;22.71;50.25;101934.38;5059348;28;45448;-45
2021/08/24 07:07:00;;;;;;;;;23.00;19.75;;;;;22.70;50.18;101943.25;5059080;28;45228;-47
2021/08/24 07:09:25;;;;;;;;;21.25;17.25;;;;;22.70;50.37;101940.59;5058746;28;46344;-49
2021/08/24 07:11:51;;;;;;;;;23.00;20.50;;;;;22.69;50.22;101937.13;5058803;28;45307;-45
2021/08/24 07:14:16;;;;;;;;;18.75;18.75;;;;;22.69;50.27;101936.25;5058905;28;45318;-45
2021/08/24 07:16:45;;;;;;;;;19.00;18.75;;;;;22.70;50.35;101932.66;5059032;28;45562;-50
2021/08/24 07:19:11;;;;;;;;;19.00;17.50;;;;;22.69;50.23;101942.41;5058468;28;46466;-52
2021/08/24 07:21:37;;;;;;;;;16.75;16.75;;;;;22.68;50.23;101938.03;5059051;28;45923;-45
2021/08/24 07:24:04;;;;;;;;;18.25;16.00;;;;;22.71;50.94;101929.09;5058917;28;45246;-48
2021/08/24 07:26:29;;;;;;;;;20.25;17.50;;;;;22.71;50.57;101944.97;5058769;28;45208;-47
2021/08/24 07:28:55;;;;;;;;;20.75;20.00;;;;;22.69;50.34;101934.47;5058492;28;45433;-48
2021/08/24 07:31:20;;;;;;;;;16.75;14.75;;;;;22.69;50.08;101936.25;5058639;28;45469;-49
2021/08/24 07:33:46;;;;;;;;;17.50;16.75;;;;;22.69;50.28;101934.47;5040593;28;45193;-54
2021/08/24 07:36:12;;;;;;;;;16.25;16.25;;;;;22.70;50.17;101936.19;5058703;28;45261;-51
2021/08/24 07:38:37;;;;;;;;;15.25;13.25;;;;;22.70;50.51;101937.97;5058305;28;46196;-46
2021/08/24 07:41:04;;;;;;;;;15.50;13.25;;;;;22.70;50.48;101930.91;5058432;28;45337;-46
2021/08/24 07:43:29;;;;;;;;;19.00;16.00;;;;;22.70;50.40;101932.66;5040189;28;45557;-52
2021/08/24 07:45:55;;;;;;;;;13.00;12.75;;;;;22.72;50.44;101930.81;5058468;28;45541;-45
2021/08/24 07:48:20;;;;;;;;;18.25;15.50;;;;;22.74;50.40;101934.25;5040146;28;47908;-48
2021/08/24 07:50:46;;;;;;;;;16.50;16.00;;;;;22.76;50.33;101932.41;5058043;28;45302;-47
2021/08/24 07:53:12;;;;;;;;;19.50;16.50;;;;;22.82;50.53;101937.38;5058213;28;45314;-51
2021/08/24 07:55:37;;;;;;;;;16.00;15.75;;;;;22.84;50.41;101924.94;5058512;28;45501;-51
2021/08/24 07:58:03;;;;;;;;;20.00;17.50;;;;;22.87;50.16;101925.75;5057898;28;46301;-49
2021/08/24 08:00:28;;;;;;;;;18.75;15.75;;;;;22.90;50.30;101930.84;5057829;28;45264;-50
2021/08/24 08:02:53;;;;;;;;;16.75;14.50;;;;;22.89;49.96;101930.00;5058076;28;45358;-46
2021/08/24 08:05:19;;;;;;;;;14.00;12.75;;;;;22.92;49.86;101932.53;5040317;28;45841;-50
2021/08/24 08:07:45;;;;;;;;;17.50;14.75;;;;;22.91;49.96;101929.94;5057623;28;46176;-50
2021/08/24 08:10:12;;;;;;;;;14.50;13.50;;;;;22.90;50.03;101928.22;5057770;28;45327;-51
2021/08/24 08:12:37;;;;;;;;;13.50;13.50;;;;;22.91;50.22;101922.00;5058316;28;45657;-52
2021/08/24 08:15:05;;;;;;;;;17.50;14.75;;;;;22.92;50.04;101929.00;5058010;28;45525;-54
2021/08/24 08:17:30;;;;;;;;;16.00;13.75;;;;;22.92;50.16;101929.00;5039544;28;47726;-51
2021/08/24 08:19:56;;;;;;;;;16.50;12.25;;;;;22.92;50.10;101934.28;5057614;28;45324;-48
2021/08/24 08:22:22;;;;;;;;;12.00;12.00;;;;;22.92;49.71;101929.00;5057548;28;45293;-46
2021/08/24 08:24:47;;;;;;;;;13.50;13.00;;;;;22.90;49.95;101929.09;5057798;28;45692;-52
2021/08/24 08:27:12;;;;;;;;;15.75;14.50;;;;;22.92;49.63;101926.34;5057442;28;46629;-49
2021/08/24 08:29:38;;;;;;;;;15.00;12.75;;;;;22.90;49.91;101922.91;5057918;28;45275;-53
2021/08/24 08:32:09;;;;;;;;;12.00;12.00;;;;;22.91;49.90;101920.22;5057497;28;45228;-50
2021/08/24 08:34:35;;;;;;;;;13.50;12.25;;;;;22.91;49.92;101929.94;5057499;28;45376;-49
2021/08/24 08:37:00;;;;;;;;;14.25;12.00;;;;;22.93;49.48;101928.06;5057393;28;45531;-51
2021/08/24 08:39:26;;;;;;;;;11.50;11.00;;;;;22.94;49.36;101929.78;5057243;28;45325;-54
2021/08/24 08:42:20;;;;;;;;;11.75;10.25;;;;;22.95;49.35;101936.78;5057365;28;45421;-47
2021/08/24 08:45:03;;;;;;;;;13.50;11.50;;;;;22.95;49.46;101942.09;5057581;28;45408;-49
2021/08/24 08:47:41;;;;;;;;;11.50;10.00;;;;;22.94;49.22;101935.91;5057162;28;45526;-51
2021/08/24 08:50:40;;;;;;;;;10.50;10.50;;;;;22.95;49.38;101935.00;5038294;28;45856;-54
2021/08/24 08:53:13;;;;;;;;;12.25;11.25;;;;;22.95;49.14;101931.50;5039274;28;45281;-51
2021/08/24 08:56:03;;;;;;;;;10.50;10.25;;;;;22.96;48.99;101933.22;5057955;28;45233;-53
2021/08/24 08:58:31;;;;;;;;;13.75;11.75;;;;;22.96;49.14;101939.34;5056852;28;46297;-50
2021/08/24 09:01:02;;;;;;;;;11.00;11.00;;;;;22.93;48.98;101928.91;5057171;28;45324;-48
2021/08/24 09:03:43;;;;;;;;;12.75;11.00;;;;;22.94;48.67;101932.44;5057380;28;45783;-48
2021/08/24 09:06:10;;;;;;;;;10.75;9.50;;;;;22.93;48.90;101933.34;5057833;28;45232;-50
2021/08/24 09:08:37;;;;;;;;;10.00;10.00;;;;;22.93;48.68;101922.78;5056926;28;45331;-51
2021/08/24 09:11:05;;;;;;;;;10.50;10.50;;;;;22.94;48.76;101929.78;5056997;28;45829;-51
2021/08/24 09:13:43;;;;;;;;;11.00;11.00;;;;;22.94;48.83;101927.16;5057097;28;45302;-52
2021/08/24 09:16:14;;;;;;;;;10.00;10.00;;;;;22.95;48.62;101931.50;5057803;28;45336;-47
2021/08/24 09:18:39;;;;;;;;;8.25;8.25;;;;;22.96;48.34;101933.22;5039346;28;45714;-48
2021/08/24 09:21:05;;;;;;;;;10.00;9.00;;;;;22.95;48.40;101920.94;5057013;28;45520;-54
2021/08/24 09:23:31;;;;;;;;;10.25;10.25;;;;;22.96;48.19;101925.28;5056873;28;45283;-53
2021/08/24 09:25:59;;;;;;;;;10.75;10.25;;;;;22.97;48.23;101925.19;5056978;28;45509;-50
2021/08/24 09:28:28;;;;;;;;;8.75;7.00;;;;;22.97;47.99;101922.56;5056547;28;45685;-49
2021/08/24 09:30:55;;;;;;;;;9.00;7.50;;;;;22.99;47.88;101927.75;5056610;28;45869;-54
2021/08/24 09:33:21;;;;;;;;;7.00;7.00;;;;;22.99;47.92;101922.47;5056648;28;45356;-47
2021/08/24 09:35:47;;;;;;;;;8.50;8.50;;;;;23.00;47.69;101919.78;5056925;28;45590;-50
2021/08/24 09:38:24;;;;;;;;;8.75;8.75;;;;;23.01;47.91;101920.63;5056793;28;45678;-52
2021/08/24 09:40:56;;;;;;;;;8.00;7.25;;;;;23.03;47.28;101923.19;5056575;28;45822;-50
2021/08/24 09:43:37;;;;;;;;;8.00;8.00;;;;;23.03;47.37;101918.75;5056698;28;45438;-49
2021/08/24 09:46:32;;;;;;;;;11.75;8.50;;;;;23.05;47.43;101908.09;5056779;28;45273;-50
2021/08/24 09:49:07;;;;;;;;;13.25;10.50;;;;;23.05;47.54;101911.63;5056314;28;47115;-47
2021/08/24 09:51:52;;;;;;;;;8.25;7.25;;;;;23.07;47.28;101903.59;5056329;28;45473;-50
2021/08/24 09:54:39;;;;;;;;;11.50;9.00;;;;;23.08;47.46;101914.13;5056495;28;45414;-48
2021/08/24 09:57:23;;;;;;;;;7.50;7.50;;;;;23.09;47.16;101901.75;5056682;28;45271;-47
2021/08/24 10:00:05;;;;;;;;;7.00;7.00;;;;;23.09;46.49;101897.31;5056136;28;45604;-52
2021/08/24 10:02:41;;;;;;;;;8.00;8.00;;;;;23.09;46.36;101893.81;5058385;28;45253;-50
2021/08/24 10:05:13;;;;;;;;;8.25;8.25;;;;;23.10;46.08;101893.72;5060077;28;45252;-49
2021/08/24 10:07:45;;;;;;;;;6.50;6.50;;;;;23.10;46.11;101893.72;5060165;28;45367;-50
2021/08/24 10:10:30;;;;;;;;;10.00;7.00;;;;;23.12;46.07;101888.38;5041930;28;48620;-53
2021/08/24 10:12:58;;;;;;;;;6.50;6.50;;;;;23.11;45.58;101903.38;5059966;28;45876;-51
2021/08/24 10:15:39;;;;;;;;;8.00;5.75;;;;;23.12;45.64;101899.78;5059798;28;45336;-47
2021/08/24 10:18:10;;;;;;;;;6.75;6.25;;;;;23.13;45.41;101890.94;5059868;28;45443;-47
2021/08/24 10:20:49;;;;;;;;;7.00;7.00;;;;;23.14;45.05;101899.72;5059729;28;46390;-51
2021/08/24 10:23:22;;;;;;;;;7.00;7.00;;;;;23.14;44.83;101894.44;5059981;28;45521;-54
2021/08/24 10:25:53;;;;;;;;;8.00;8.00;;;;;23.13;44.79;101882.16;5060265;28;45154;-53
2021/08/24 10:28:25;;;;;;;;;8.00;5.50;;;;;23.13;44.47;101877.72;5059823;28;45321;-55
2021/08/24 10:31:17;;;;;;;;;7.00;6.75;;;;;23.12;44.22;101880.44;5059533;28;46549;-57
2021/08/24 10:33:54;;;;;;;;;4.00;2.00;;;;;23.13;44.27;101882.16;5059926;28;45653;-52
2021/08/24 10:36:39;;;;;;;;;4.00;4.00;;;;;23.12;43.66;101886.56;5059520;28;45332;-55
2021/08/24 10:39:08;;;;;;;;;5.50;5.00;;;;;23.12;43.40;101883.94;5059574;28;45423;-51
2021/08/24 10:41:47;;;;;;;;;3.00;3.00;;;;;23.11;43.13;101882.22;5059133;28;46529;-50
2021/08/24 10:44:17;;;;;;;;;8.50;7.25;;;;;23.13;43.15;101876.88;5059532;28;45327;-49
2021/08/24 10:46:55;;;;;;;;;8.50;8.00;;;;;23.11;42.99;101869.00;5059732;28;45253;-50
2021/08/24 10:49:21;;;;;;;;;6.50;6.00;;;;;23.11;42.84;101879.56;5059417;28;45272;-50
2021/08/24 10:51:55;;;;;;;;;5.00;5.00;;;;;23.10;43.04;101872.56;5059419;28;45384;-49
2021/08/24 10:54:45;;;;;;;;;5.75;5.75;;;;;23.13;42.25;101882.16;5059175;28;45792;-51
2021/08/24 10:57:24;;;;;;;;;4.25;4.25;;;;;23.12;42.20;101881.28;5059469;28;45552;-50
2021/08/24 11:00:21;;;;;;;;;5.75;5.25;;;;;23.13;41.28;101885.63;5059317;28;45569;-50
2021/08/24 11:03:17;;;;;;;;;4.50;3.00;;;;;23.12;41.14;101881.28;5059224;28;46220;-50
2021/08/24 11:05:56;;;;;;;;;4.00;4.00;;;;;23.12;40.57;101881.28;5059090;28;45422;-54
2021/08/24 11:08:39;;;;;;;;;4.50;4.00;;;;;23.12;40.52;101881.28;5059053;28;45458;-56
2021/08/24 11:11:25;;;;;;;;;5.75;3.00;;;;;23.12;40.46;101869.84;5059301;28;45417;-52
2021/08/24 11:14:09;;;;;;;;;4.00;3.50;;;;;23.13;40.75;101871.56;5058300;28;46260;-53
2021/08/24 11:16:44;;;;;;;;;4.00;4.00;;;;;23.13;40.44;101875.06;5058706;28;45363;-48
2021/08/24 11:19:25;;;;;;;;;6.00;4.00;;;;;23.12;40.81;101864.56;5058918;28;45453;-51
2021/08/24 11:21:57;;;;;;;;;5.00;5.00;;;;;23.13;40.93;101861.00;5059129;28;45276;-52
2021/08/24 11:24:33;;;;;;;;;4.50;4.50;;;;;23.13;40.94;101872.41;5058683;28;46598;-51
2021/08/24 11:27:28;;;;;;;;;5.50;4.25;;;;;23.14;40.34;101852.97;5057435;28;45752;-50
2021/08/24 11:30:09;;;;;;;;;5.00;5.00;;;;;23.15;40.78;101854.69;5059080;28;45370;-51